Terminal Aerodrome Forecast
Issued by NWS Central Illinois

Home | Current Version | Previous Version | Text Only | Print | Product List | Glossary On
Versions: 1 2 3 4 5 6 7 8 9 10 11 12 13 14 15 16 17 18
000
FTUS43 KILX 230524
TAFPIA
TAF
KPIA 230524Z 2306/2406 21009KT P6SM VCSH BKN010
     FM230800 22009KT P6SM SHRA VCTS BKN020CB
      TEMPO 2309/2312 4SM TSRA OVC015CB
     FM231200 28006KT P6SM VCTS OVC025CB
     FM231400 35011KT P6SM BKN040
     FM240400 31006KT P6SM SCT030=

USA.gov is the U.S. government's official web portal to all federal, state and local government web resources and services.